createdAt,value
2023-05-17T00:01:39.772Z,8.07
2023-05-17T00:04:06.427Z,8.20
2023-05-17T00:06:35.174Z,10.23
2023-05-17T00:09:01.997Z,9.77
2023-05-17T00:11:28.664Z,9.02
2023-05-17T00:13:55.404Z,7.65
2023-05-17T00:16:21.980Z,9.05
2023-05-17T00:18:48.711Z,10.52
2023-05-17T00:21:15.520Z,9.93
2023-05-17T00:23:42.187Z,7.05
2023-05-17T00:26:08.839Z,11.63
2023-05-17T00:28:35.606Z,6.82
2023-05-17T00:31:02.235Z,7.05
2023-05-17T00:33:28.946Z,9.80
2023-05-17T00:35:55.611Z,7.53
2023-05-17T00:38:22.305Z,9.13
2023-05-17T00:40:50.289Z,7.18
2023-05-17T00:45:43.736Z,6.07
2023-05-17T00:48:10.602Z,8.85
2023-05-17T00:50:37.630Z,6.15
2023-05-17T00:53:04.552Z,9.60
2023-05-17T00:55:31.464Z,7.95
2023-05-17T00:57:58.245Z,7.30
2023-05-17T01:00:25.134Z,9.15
2023-05-17T01:02:51.929Z,9.27
2023-05-17T01:05:18.702Z,9.80
2023-05-17T01:07:45.358Z,10.35
2023-05-17T01:10:12.164Z,7.03
2023-05-17T01:12:48.974Z,8.50
2023-05-17T01:15:29.993Z,9.88
2023-05-17T01:18:20.322Z,8.10
2023-05-17T01:20:48.553Z,8.32
2023-05-17T01:23:51.990Z,8.15
2023-05-17T01:26:24.146Z,10.90
2023-05-17T01:28:54.393Z,9.85
2023-05-17T01:31:23.928Z,9.25
2023-05-17T01:33:50.901Z,10.23
2023-05-17T01:36:17.675Z,10.77
2023-05-17T01:38:44.279Z,7.72
2023-05-17T01:41:32.009Z,8.82
2023-05-17T01:46:43.022Z,6.70
2023-05-17T01:49:17.963Z,7.68
2023-05-17T01:52:03.159Z,5.65
2023-05-17T01:54:41.984Z,8.10
2023-05-17T01:57:10.160Z,8.57
2023-05-17T01:59:39.066Z,9.20
2023-05-17T02:02:11.889Z,9.77
2023-05-17T02:04:38.558Z,9.90
2023-05-17T02:07:06.415Z,8.35
2023-05-17T02:09:33.114Z,8.90
2023-05-17T02:12:00.155Z,14.65
2023-05-17T02:14:26.760Z,8.60
2023-05-17T02:16:53.415Z,9.48
2023-05-17T02:19:20.237Z,7.13
2023-05-17T02:21:47.132Z,7.38
2023-05-17T02:24:13.800Z,11.23
2023-05-17T02:26:43.320Z,7.93
2023-05-17T02:29:12.900Z,11.07
2023-05-17T02:31:39.612Z,9.85
2023-05-17T02:34:06.489Z,9.85
2023-05-17T02:36:33.359Z,7.85
2023-05-17T02:39:00.017Z,11.65
2023-05-17T02:41:26.622Z,6.50
2023-05-17T02:43:53.211Z,10.82
2023-05-17T02:46:19.921Z,7.97
2023-05-17T02:48:46.598Z,11.27
2023-05-17T02:51:13.268Z,11.35
2023-05-17T02:53:39.959Z,10.60
2023-05-17T02:56:06.979Z,10.10
2023-05-17T02:58:33.580Z,10.53
2023-05-17T03:01:00.168Z,11.52
2023-05-17T03:03:26.931Z,8.63
2023-05-17T03:05:53.631Z,11.13
2023-05-17T03:08:20.226Z,9.60
2023-05-17T03:10:47.435Z,8.52
2023-05-17T03:13:14.049Z,12.80
2023-05-17T03:15:41.076Z,9.98
2023-05-17T03:18:07.779Z,11.63
2023-05-17T03:20:34.396Z,9.88
2023-05-17T03:23:01.474Z,15.50
2023-05-17T03:25:28.212Z,12.00
2023-05-17T03:27:55.022Z,11.68
2023-05-17T03:30:21.687Z,10.75
2023-05-17T03:32:48.407Z,9.90
2023-05-17T03:35:16.430Z,10.43
2023-05-17T03:40:10.000Z,8.25
2023-05-17T03:42:37.251Z,9.17
2023-05-17T03:45:04.812Z,8.52
2023-05-17T03:47:31.433Z,15.20
2023-05-17T03:49:58.059Z,9.73
2023-05-17T03:52:24.701Z,15.93
2023-05-17T03:54:51.569Z,17.17
2023-05-17T03:57:19.729Z,10.57
2023-05-17T03:59:46.892Z,10.18
2023-05-17T04:02:16.004Z,17.67
2023-05-17T04:04:48.586Z,15.65
2023-05-17T04:07:15.200Z,19.27
2023-05-17T04:09:41.885Z,16.38
2023-05-17T04:12:10.864Z,13.50
2023-05-17T04:14:38.762Z,17.98
2023-05-17T04:19:32.175Z,15.75
2023-05-17T04:21:58.873Z,15.23
2023-05-17T04:24:25.742Z,16.20
2023-05-17T04:26:52.541Z,14.98
2023-05-17T04:29:19.234Z,14.35
2023-05-17T04:31:49.075Z,21.55
2023-05-17T04:34:18.055Z,16.50
2023-05-17T04:36:44.674Z,11.15
2023-05-17T04:39:11.241Z,15.85
2023-05-17T04:41:38.001Z,17.73
2023-05-17T04:44:05.944Z,15.85
2023-05-17T04:48:59.405Z,14.48
2023-05-17T04:51:27.239Z,16.50
2023-05-17T04:53:53.929Z,17.27
2023-05-17T04:56:20.534Z,16.55
2023-05-17T04:58:47.312Z,16.88
2023-05-17T05:01:13.918Z,17.63
2023-05-17T05:03:40.711Z,25.90
2023-05-17T05:06:07.492Z,21.95
2023-05-17T05:08:34.686Z,26.63
2023-05-17T05:11:01.440Z,22.70
2023-05-17T05:13:28.106Z,21.05
2023-05-17T05:15:56.696Z,23.98
2023-05-17T05:18:23.382Z,18.45
2023-05-17T05:20:50.073Z,20.50
2023-05-17T05:23:18.669Z,24.08
2023-05-17T05:25:47.265Z,20.02
2023-05-17T05:28:13.903Z,21.95
2023-05-17T05:30:40.646Z,28.50
2023-05-17T05:33:07.399Z,24.00
2023-05-17T05:35:34.058Z,21.05
2023-05-17T05:38:00.718Z,22.50
2023-05-17T05:40:27.718Z,24.13
2023-05-17T05:42:54.628Z,24.85
2023-05-17T05:45:22.042Z,25.48
2023-05-17T05:47:48.951Z,20.27
2023-05-17T05:50:15.678Z,27.70
2023-05-17T05:52:42.407Z,20.00
2023-05-17T05:55:09.379Z,23.55
2023-05-17T05:57:36.166Z,23.33
2023-05-17T06:00:03.556Z,26.13
2023-05-17T06:02:30.529Z,23.25
2023-05-17T06:04:57.141Z,30.73
2023-05-17T06:07:23.852Z,24.30
2023-05-17T06:09:50.535Z,26.80
2023-05-17T06:12:18.402Z,26.08
2023-05-17T06:17:11.480Z,33.53
2023-05-17T06:19:38.182Z,30.73
2023-05-17T06:22:05.175Z,26.75
2023-05-17T06:24:33.274Z,31.70
2023-05-17T06:26:59.998Z,24.60
2023-05-17T06:33:39.802Z,34.97
2023-05-17T06:36:06.877Z,29.63
2023-05-17T06:38:33.516Z,26.60
2023-05-17T06:41:00.174Z,32.75
2023-05-17T06:43:27.521Z,30.60
2023-05-17T06:45:54.137Z,25.10
2023-05-17T06:48:21.051Z,24.08
2023-05-17T06:50:47.995Z,33.03
2023-05-17T06:53:14.690Z,29.63
2023-05-17T06:55:43.271Z,38.55
2023-05-17T06:58:10.281Z,24.20
2023-05-17T07:00:36.952Z,24.60
2023-05-17T07:03:03.848Z,21.23
2023-05-17T07:05:31.174Z,23.57
2023-05-17T07:07:59.450Z,22.92
2023-05-17T07:10:26.288Z,18.52
2023-05-17T07:12:56.072Z,19.95
2023-05-17T07:15:22.850Z,18.52
2023-05-17T07:17:49.540Z,16.88
2023-05-17T07:20:16.812Z,15.85
2023-05-17T07:22:43.556Z,12.40
2023-05-17T07:25:10.943Z,15.68
2023-05-17T07:27:37.724Z,15.60
2023-05-17T07:30:05.039Z,11.52
2023-05-17T07:32:31.828Z,10.95
2023-05-17T07:34:58.463Z,10.73
2023-05-17T07:37:25.128Z,9.52
2023-05-17T07:39:51.934Z,6.85
2023-05-17T07:42:18.705Z,6.75
2023-05-17T07:44:45.391Z,12.80
2023-05-17T07:47:12.124Z,5.72
2023-05-17T07:49:38.870Z,6.00
2023-05-17T07:52:05.675Z,9.13
2023-05-17T07:54:32.853Z,11.13
2023-05-17T07:56:59.989Z,9.37
2023-05-17T07:59:26.941Z,9.53
2023-05-17T08:01:54.431Z,13.30
2023-05-17T08:04:23.902Z,11.73
2023-05-17T08:06:50.638Z,8.68
2023-05-17T08:09:17.320Z,12.00
2023-05-17T08:11:46.517Z,9.75
2023-05-17T08:14:14.822Z,8.68
2023-05-17T08:16:46.483Z,10.15
2023-05-17T08:19:14.316Z,10.40
2023-05-17T08:24:10.017Z,9.70
2023-05-17T08:26:36.680Z,8.55
2023-05-17T08:29:04.851Z,7.68
2023-05-17T08:31:35.213Z,9.82
2023-05-17T08:34:01.974Z,12.27
2023-05-17T08:36:32.720Z,8.05
2023-05-17T08:38:59.508Z,6.85
2023-05-17T08:41:26.364Z,8.15
2023-05-17T08:43:54.355Z,10.25
2023-05-17T08:46:24.281Z,9.32
2023-05-17T08:48:53.010Z,11.93
2023-05-17T08:51:20.180Z,8.18
2023-05-17T08:53:47.686Z,9.57
2023-05-17T08:56:16.669Z,11.60
2023-05-17T08:58:56.197Z,9.02
2023-05-17T09:01:26.448Z,8.77
2023-05-17T09:03:54.895Z,7.25
2023-05-17T09:06:23.162Z,10.25
2023-05-17T09:08:55.382Z,11.80
2023-05-17T09:11:40.107Z,6.18
2023-05-17T09:14:07.866Z,8.88
2023-05-17T09:16:36.472Z,12.80
2023-05-17T09:19:05.727Z,10.20
2023-05-17T09:21:37.829Z,10.65
2023-05-17T09:24:08.046Z,6.32
2023-05-17T09:26:46.277Z,11.25
2023-05-17T09:29:15.554Z,7.90
2023-05-17T09:31:43.208Z,9.70
2023-05-17T09:34:10.443Z,9.20
2023-05-17T09:36:38.636Z,11.73
2023-05-17T09:39:08.191Z,8.55
2023-05-17T09:41:47.209Z,8.38
2023-05-17T09:44:15.223Z,6.13
2023-05-17T09:46:45.291Z,7.32
2023-05-17T09:49:13.451Z,7.63
2023-05-17T09:51:43.112Z,6.78
2023-05-17T09:54:10.667Z,9.23
2023-05-17T09:56:37.897Z,7.38
2023-05-17T09:59:11.366Z,7.50
2023-05-17T10:01:42.452Z,7.32
2023-05-17T10:04:12.955Z,4.90
2023-05-17T10:09:14.465Z,8.20
2023-05-17T10:11:46.200Z,7.70
2023-05-17T10:14:39.280Z,11.63
2023-05-17T10:17:09.287Z,9.55
2023-05-17T10:19:37.299Z,6.13
2023-05-17T10:22:18.931Z,7.75
2023-05-17T10:24:50.018Z,6.43
2023-05-17T10:29:45.910Z,8.55
2023-05-17T10:32:14.614Z,7.13
2023-05-17T10:34:41.529Z,6.72
2023-05-17T10:37:08.233Z,6.47
2023-05-17T10:39:38.683Z,11.00
2023-05-17T10:42:14.766Z,8.43
2023-05-17T10:44:42.996Z,6.88
2023-05-17T10:47:11.816Z,10.90
2023-05-17T10:49:43.190Z,4.85
2023-05-17T10:52:19.064Z,9.10
2023-05-17T10:54:49.994Z,9.02
2023-05-17T10:57:20.681Z,8.45
2023-05-17T11:00:01.822Z,7.75
2023-05-17T11:02:29.397Z,11.23
2023-05-17T11:07:34.919Z,8.75
2023-05-17T11:10:06.223Z,7.25
2023-05-17T11:12:51.700Z,6.75
2023-05-17T11:15:18.440Z,9.00
2023-05-17T11:17:46.914Z,8.97
2023-05-17T11:20:17.410Z,7.03
2023-05-17T11:22:56.290Z,5.95
2023-05-17T11:25:23.121Z,7.13
2023-05-17T11:27:52.025Z,6.33
2023-05-17T11:30:24.627Z,9.60
2023-05-17T11:32:58.848Z,8.93
2023-05-17T11:35:28.531Z,6.63
2023-05-17T11:38:17.160Z,7.82
2023-05-17T11:40:46.885Z,9.05
2023-05-17T11:43:18.057Z,8.73
2023-05-17T11:45:53.142Z,9.45
2023-05-17T11:48:22.377Z,8.60
2023-05-17T11:50:51.744Z,6.53
2023-05-17T11:53:19.312Z,5.20
2023-05-17T11:58:20.715Z,7.43
2023-05-17T12:00:53.351Z,7.25
2023-05-17T12:03:30.842Z,8.07
2023-05-17T12:06:13.427Z,5.65
2023-05-17T12:08:43.865Z,10.38
2023-05-17T12:11:17.997Z,9.75
2023-05-17T12:13:47.271Z,8.05
2023-05-17T12:16:17.902Z,5.32
2023-05-17T12:18:49.744Z,6.93
2023-05-17T12:21:18.495Z,5.65
2023-05-17T12:23:49.564Z,8.35
2023-05-17T12:26:18.249Z,8.10
2023-05-17T12:28:55.054Z,7.88
2023-05-17T12:31:32.777Z,5.55
2023-05-17T12:34:02.725Z,7.07
2023-05-17T12:36:30.233Z,8.98
2023-05-17T12:38:57.643Z,5.43
2023-05-17T12:41:28.936Z,12.32
2023-05-17T12:44:06.157Z,8.60
2023-05-17T12:46:40.338Z,6.63
2023-05-17T12:49:09.349Z,4.15
2023-05-17T12:51:46.572Z,3.47
2023-05-17T12:54:26.680Z,5.85
2023-05-17T12:56:55.306Z,7.95
2023-05-17T12:59:25.379Z,7.45
2023-05-17T13:01:55.901Z,6.63
2023-05-17T13:04:34.700Z,5.43
2023-05-17T13:07:03.555Z,8.15
2023-05-17T13:09:32.226Z,6.95
2023-05-17T13:12:01.583Z,5.07
2023-05-17T13:14:46.711Z,5.53
2023-05-17T13:17:24.380Z,6.03
2023-05-17T13:22:18.126Z,6.65
2023-05-17T13:24:45.584Z,6.27
2023-05-17T13:27:13.151Z,6.68
2023-05-17T13:29:42.778Z,7.45
2023-05-17T13:32:12.172Z,7.25
2023-05-17T13:34:39.829Z,10.55
2023-05-17T13:39:38.176Z,10.02
2023-05-17T13:42:05.786Z,4.43
2023-05-17T13:44:39.558Z,5.68
2023-05-17T13:47:08.485Z,6.63
2023-05-17T13:49:35.300Z,6.15
2023-05-17T13:52:02.202Z,8.73
2023-05-17T13:54:30.370Z,7.18
2023-05-17T13:56:57.738Z,5.97
2023-05-17T14:01:51.092Z,5.37
2023-05-17T14:04:20.180Z,5.40
2023-05-17T14:06:48.913Z,8.00
2023-05-17T14:09:17.741Z,9.68
2023-05-17T14:11:44.483Z,7.70
2023-05-17T14:14:11.352Z,5.97
2023-05-17T14:16:38.231Z,7.10
2023-05-17T14:19:05.252Z,7.60
2023-05-17T14:21:32.013Z,9.40
2023-05-17T14:23:58.647Z,7.90
2023-05-17T14:26:26.356Z,10.33
2023-05-17T14:28:53.088Z,5.15
2023-05-17T14:31:19.796Z,4.53
2023-05-17T14:33:46.457Z,5.60
2023-05-17T14:36:14.364Z,6.25
2023-05-17T14:38:41.263Z,9.95
2023-05-17T14:41:08.189Z,6.93
2023-05-17T14:43:34.921Z,7.18
2023-05-17T14:46:01.882Z,3.57
2023-05-17T14:48:28.597Z,6.40
2023-05-17T14:50:55.333Z,9.33
2023-05-17T14:53:23.511Z,7.10
2023-05-17T14:55:50.195Z,5.60
2023-05-17T14:58:17.283Z,7.67
2023-05-17T15:00:48.477Z,5.45
2023-05-17T15:03:21.845Z,8.40
2023-05-17T15:05:58.610Z,6.60
2023-05-17T15:08:25.518Z,5.95
2023-05-17T15:10:52.592Z,5.32
2023-05-17T15:13:19.343Z,7.97
2023-05-17T15:15:46.965Z,7.97
2023-05-17T15:18:16.530Z,6.72
2023-05-17T15:20:43.451Z,9.45
2023-05-17T15:23:10.195Z,7.82
2023-05-17T15:25:37.025Z,7.57
2023-05-17T15:28:03.873Z,6.65
2023-05-17T15:30:30.710Z,6.35
2023-05-17T15:32:58.691Z,6.65
2023-05-17T15:35:26.729Z,7.50
2023-05-17T15:37:53.916Z,5.95
2023-05-17T15:40:25.151Z,7.63
2023-05-17T15:42:54.726Z,3.92
2023-05-17T15:45:21.623Z,9.10
2023-05-17T15:47:49.603Z,7.65
2023-05-17T15:50:16.606Z,5.53
2023-05-17T15:52:43.432Z,6.20
2023-05-17T15:55:11.078Z,5.38
2023-05-17T15:57:37.822Z,5.65
2023-05-17T16:00:05.638Z,7.27
2023-05-17T16:02:32.362Z,7.20
2023-05-17T16:05:00.575Z,7.13
2023-05-17T16:07:29.336Z,5.38
2023-05-17T16:09:56.101Z,5.37
2023-05-17T16:12:22.798Z,8.63
2023-05-17T16:14:49.395Z,5.60
2023-05-17T16:17:16.354Z,7.63
2023-05-17T16:19:43.113Z,7.05
2023-05-17T16:22:09.838Z,6.10
2023-05-17T16:24:37.299Z,6.57
2023-05-17T16:29:39.993Z,8.32
2023-05-17T16:32:08.811Z,5.85
2023-05-17T16:34:36.253Z,6.40
2023-05-17T16:37:04.911Z,6.80
2023-05-17T16:39:32.200Z,6.53
2023-05-17T16:41:58.850Z,6.03
2023-05-17T16:44:25.802Z,6.63
2023-05-17T16:46:52.492Z,5.88
2023-05-17T16:49:19.196Z,5.60
2023-05-17T16:51:46.052Z,4.87
2023-05-17T16:54:14.940Z,5.63
2023-05-17T16:56:41.613Z,8.07
2023-05-17T16:59:08.464Z,10.80
2023-05-17T17:01:35.462Z,12.52
2023-05-17T17:04:03.284Z,8.43
2023-05-17T17:06:30.198Z,8.77
2023-05-17T17:08:57.028Z,5.95
2023-05-17T17:11:23.777Z,7.47
2023-05-17T17:13:50.500Z,8.53
2023-05-17T17:16:17.759Z,9.80
2023-05-17T17:18:46.587Z,10.15
2023-05-17T17:21:13.830Z,11.25
2023-05-17T17:23:40.615Z,8.02
2023-05-17T17:26:16.508Z,10.90
2023-05-17T17:28:43.392Z,9.52
2023-05-17T17:31:10.681Z,11.27
2023-05-17T17:33:37.495Z,6.95
2023-05-17T17:36:04.476Z,6.97
2023-05-17T17:38:31.961Z,7.13
2023-05-17T17:40:58.623Z,7.72
2023-05-17T17:43:25.488Z,5.60
2023-05-17T17:45:52.266Z,7.00
2023-05-17T17:48:18.948Z,9.77
2023-05-17T17:50:46.019Z,10.55
2023-05-17T17:53:12.752Z,15.30
2023-05-17T18:01:27.353Z,8.90
2023-05-17T18:03:54.210Z,8.68
2023-05-17T18:06:22.659Z,13.07
2023-05-17T18:08:49.818Z,7.05
2023-05-17T18:11:16.802Z,6.55
2023-05-17T18:13:43.707Z,10.48
2023-05-17T18:16:10.944Z,10.90
2023-05-17T18:18:40.855Z,10.73
2023-05-17T18:21:09.159Z,8.80
2023-05-17T18:23:36.137Z,7.03
2023-05-17T18:26:03.444Z,9.38
2023-05-17T18:28:41.328Z,17.85
2023-05-17T18:31:10.208Z,9.57
2023-05-17T18:33:37.004Z,11.90
2023-05-17T18:36:03.929Z,9.45
2023-05-17T18:38:30.864Z,8.73
2023-05-17T18:40:57.643Z,7.30
2023-05-17T18:43:24.473Z,9.50
2023-05-17T18:45:51.619Z,8.73
2023-05-17T18:48:18.818Z,7.38
2023-05-17T18:50:45.600Z,9.35
2023-05-17T18:53:13.187Z,10.70
2023-05-17T18:55:39.980Z,10.88
2023-05-17T18:58:06.983Z,6.95
2023-05-17T19:00:34.286Z,8.60
2023-05-17T19:03:01.359Z,11.43
2023-05-17T19:05:31.168Z,7.53
2023-05-17T19:07:57.842Z,10.93
2023-05-17T19:10:24.709Z,12.77
2023-05-17T19:12:52.451Z,12.97
2023-05-17T19:17:46.650Z,10.02
2023-05-17T19:20:13.548Z,10.30
2023-05-17T19:22:40.230Z,14.05
2023-05-17T19:25:08.567Z,9.40
2023-05-17T19:27:35.302Z,12.10
2023-05-17T19:30:02.852Z,9.65
2023-05-17T19:32:33.334Z,8.40
2023-05-17T19:35:01.341Z,10.75
2023-05-17T19:39:55.788Z,9.48
2023-05-17T19:42:22.505Z,12.47
2023-05-17T19:44:49.139Z,7.07
2023-05-17T19:47:15.789Z,7.47
2023-05-17T19:49:43.395Z,9.77
2023-05-17T19:52:10.483Z,10.90
2023-05-17T19:54:37.176Z,9.57
2023-05-17T19:57:03.953Z,6.03
2023-05-17T19:59:30.816Z,10.20
2023-05-17T20:01:57.849Z,7.75
2023-05-17T20:04:24.626Z,6.17
2023-05-17T20:06:51.764Z,8.70
2023-05-17T20:09:18.410Z,11.53
2023-05-17T20:11:45.219Z,9.13
2023-05-17T20:14:12.552Z,11.00
2023-05-17T20:16:39.438Z,13.98
2023-05-17T20:19:06.349Z,14.17
2023-05-17T20:21:33.558Z,6.83
2023-05-17T20:24:04.096Z,13.27
2023-05-17T20:26:37.306Z,9.40
2023-05-17T20:29:07.484Z,7.22
2023-05-17T20:31:35.690Z,9.90
2023-05-17T20:34:03.092Z,7.90
2023-05-17T20:36:29.908Z,7.93
2023-05-17T20:38:56.531Z,8.02
2023-05-17T20:41:23.762Z,6.82
2023-05-17T20:43:50.505Z,14.60
2023-05-17T20:46:17.789Z,8.57
2023-05-17T20:48:46.738Z,11.43
2023-05-17T20:51:13.577Z,10.13
2023-05-17T20:53:40.651Z,8.45
2023-05-17T20:56:07.778Z,11.00
2023-05-17T20:58:34.482Z,8.73
2023-05-17T21:01:01.638Z,11.80
2023-05-17T21:03:29.416Z,7.27
2023-05-17T21:08:23.221Z,11.32
2023-05-17T21:10:50.262Z,8.63
2023-05-17T21:13:17.102Z,11.00
2023-05-17T21:15:44.069Z,15.05
2023-05-17T21:18:11.617Z,10.77
2023-05-17T21:20:38.985Z,11.63
2023-05-17T21:23:05.823Z,11.80
2023-05-17T21:25:32.950Z,12.25
2023-05-17T21:27:59.932Z,9.82
2023-05-17T21:30:27.062Z,10.90
2023-05-17T21:32:53.906Z,13.73
2023-05-17T21:35:20.842Z,10.55
2023-05-17T21:37:47.697Z,12.07
2023-05-17T21:40:14.905Z,8.57
2023-05-17T21:42:41.842Z,8.40
2023-05-17T21:45:09.006Z,13.17
2023-05-17T21:47:36.212Z,9.85
2023-05-17T21:50:03.898Z,10.32
2023-05-17T21:52:30.670Z,11.18
2023-05-17T21:54:57.304Z,14.57
2023-05-17T21:57:23.972Z,12.10
2023-05-17T21:59:51.517Z,8.30
2023-05-17T22:02:18.402Z,10.20
2023-05-17T22:04:45.126Z,12.03
2023-05-17T22:07:13.407Z,9.50
2023-05-17T22:09:40.197Z,8.95
2023-05-17T22:12:08.644Z,9.13
2023-05-17T22:14:36.749Z,13.90
2023-05-17T22:17:09.913Z,10.48
2023-05-17T22:19:40.923Z,9.27
2023-05-17T22:22:08.527Z,9.63
2023-05-17T22:24:35.298Z,13.18
2023-05-17T22:27:02.846Z,14.10
2023-05-17T22:29:29.709Z,7.55
2023-05-17T22:31:56.673Z,9.98
2023-05-17T22:34:23.474Z,8.10
2023-05-17T22:36:50.156Z,9.77
2023-05-17T22:39:16.904Z,8.02
2023-05-17T22:41:44.677Z,11.43
2023-05-17T22:44:11.418Z,10.30
2023-05-17T22:46:38.853Z,17.90
2023-05-17T22:49:08.426Z,8.95
2023-05-17T22:51:35.771Z,8.25
2023-05-17T22:54:03.422Z,14.38
2023-05-17T22:56:30.447Z,17.17
2023-05-17T22:58:58.415Z,9.47
2023-05-17T23:01:26.609Z,15.00
2023-05-17T23:03:53.466Z,11.30
2023-05-17T23:06:22.342Z,8.05
2023-05-17T23:08:49.852Z,10.05
2023-05-17T23:11:16.599Z,9.63
2023-05-17T23:13:43.332Z,13.25
2023-05-17T23:16:10.828Z,10.65
2023-05-17T23:18:38.438Z,8.65
2023-05-17T23:21:05.147Z,7.13
2023-05-17T23:23:31.792Z,9.57
2023-05-17T23:25:58.882Z,8.35
2023-05-17T23:28:25.526Z,15.20
2023-05-17T23:30:54.576Z,9.85
2023-05-17T23:33:21.302Z,9.98
2023-05-17T23:35:47.945Z,10.90
2023-05-17T23:38:14.627Z,11.82
2023-05-17T23:40:41.902Z,9.90
2023-05-17T23:43:10.223Z,10.88
2023-05-17T23:45:38.585Z,9.45
2023-05-17T23:48:05.292Z,8.43
2023-05-17T23:50:33.623Z,7.80
2023-05-17T23:53:04.845Z,12.90
2023-05-17T23:55:31.615Z,9.05
